createdAt,value
2023-02-27T00:00:18.623Z,100099.59
2023-02-27T00:00:53.290Z,100103.28
2023-02-27T00:01:25.813Z,100100.88
2023-02-27T00:01:58.190Z,100102.72
2023-02-27T00:02:34.216Z,100102.72
2023-02-27T00:03:06.632Z,100101.06
2023-02-27T00:03:39.021Z,100103.72
2023-02-27T00:04:13.803Z,100096.78
2023-02-27T00:04:48.623Z,100103.16
2023-02-27T00:05:22.643Z,100104.63
2023-02-27T00:05:56.439Z,100104.00
2023-02-27T00:06:31.827Z,100101.56
2023-02-27T00:07:04.004Z,100102.63
2023-02-27T00:07:36.130Z,100107.31
2023-02-27T00:08:11.093Z,100099.53
2023-02-27T00:08:43.287Z,100108.13
2023-02-27T00:09:15.409Z,100101.63
2023-02-27T00:09:50.097Z,100098.34
2023-02-27T00:10:22.449Z,100103.09
2023-02-27T00:10:54.601Z,100105.13
2023-02-27T00:11:29.577Z,100099.00
2023-02-27T00:12:02.494Z,100107.81
2023-02-27T00:12:37.821Z,100106.16
2023-02-27T00:13:12.910Z,100119.47
2023-02-27T00:13:45.274Z,100112.53
2023-02-27T00:14:18.070Z,100115.41
2023-02-27T00:14:52.768Z,100129.53
2023-02-27T00:15:25.121Z,100111.13
2023-02-27T00:16:00.179Z,100124.22
2023-02-27T00:16:32.329Z,100115.63
2023-02-27T00:17:04.690Z,100123.81
2023-02-27T00:17:39.773Z,100123.00
2023-02-27T00:18:11.945Z,100128.75
2023-02-27T00:18:44.040Z,100121.00
2023-02-27T00:19:18.931Z,100119.16
2023-02-27T00:19:53.776Z,100125.50
2023-02-27T00:20:26.468Z,100113.44
2023-02-27T00:21:01.240Z,100115.88
2023-02-27T00:21:35.829Z,100114.25
2023-02-27T00:22:08.943Z,100109.38
2023-02-27T00:22:42.078Z,100115.28
2023-02-27T00:23:17.160Z,100117.34
2023-02-27T00:23:49.357Z,100114.69
2023-02-27T00:24:22.596Z,100117.34
2023-02-27T00:24:57.305Z,100115.72
2023-02-27T00:25:29.583Z,100118.38
2023-02-27T00:26:01.771Z,100118.38
2023-02-27T00:26:36.725Z,100122.88
2023-02-27T00:27:08.812Z,100123.69
2023-02-27T00:27:41.799Z,100120.22
2023-02-27T00:28:16.608Z,100122.88
2023-02-27T00:28:48.707Z,100127.16
2023-02-27T00:29:20.907Z,100122.66
2023-02-27T00:29:59.584Z,100129.00
2023-02-27T00:30:31.700Z,100130.84
2023-02-27T00:31:06.769Z,100130.84
2023-02-27T00:31:39.170Z,100145.19
2023-02-27T00:32:11.371Z,100142.31
2023-02-27T00:32:46.604Z,100142.91
2023-02-27T00:33:18.845Z,100150.06
2023-02-27T00:33:53.717Z,100143.75
2023-02-27T00:34:26.246Z,100142.91
2023-02-27T00:35:01.058Z,100134.31
2023-02-27T00:35:35.833Z,100134.94
2023-02-27T00:36:08.377Z,100132.47
2023-02-27T00:36:40.601Z,100132.28
2023-02-27T00:37:15.356Z,100136.78
2023-02-27T00:37:47.545Z,100135.97
2023-02-27T00:38:19.645Z,100138.63
2023-02-27T00:38:54.393Z,100131.66
2023-02-27T00:39:26.568Z,100142.31
2023-02-27T00:39:58.686Z,100139.88
2023-02-27T00:40:35.962Z,100144.59
2023-02-27T00:41:08.200Z,100142.13
2023-02-27T00:41:40.376Z,100141.09
2023-02-27T00:42:15.117Z,100138.88
2023-02-27T00:42:48.775Z,100143.38
2023-02-27T00:43:20.860Z,100148.09
2023-02-27T00:43:55.538Z,100148.91
2023-02-27T00:44:27.673Z,100150.97
2023-02-27T00:44:59.887Z,100147.28
2023-02-27T00:45:34.579Z,100150.16
2023-02-27T00:46:06.971Z,100158.13
2023-02-27T00:46:39.207Z,100150.97
2023-02-27T00:47:14.153Z,100160.56
2023-02-27T00:47:46.458Z,100150.97
2023-02-27T00:48:18.656Z,100150.16
2023-02-27T00:48:53.472Z,100156.28
2023-02-27T00:49:26.243Z,100146.88
2023-02-27T00:50:01.181Z,100158.97
2023-02-27T00:50:35.957Z,100162.63
2023-02-27T00:51:08.112Z,100157.53
2023-02-27T00:51:40.343Z,100154.03
2023-02-27T00:52:15.096Z,100159.59
2023-02-27T00:52:47.276Z,100158.78
2023-02-27T00:53:22.091Z,100161.44
2023-02-27T00:53:54.192Z,100163.06
2023-02-27T00:54:26.358Z,100164.69
2023-02-27T00:55:01.061Z,100171.63
2023-02-27T00:55:33.164Z,100169.59
2023-02-27T00:56:05.833Z,100168.53
2023-02-27T00:56:41.226Z,100171.19
2023-02-27T00:57:13.461Z,100180.00
2023-02-27T00:57:46.269Z,100178.16
2023-02-27T00:58:21.191Z,100171.81
2023-02-27T00:58:53.337Z,100174.28
2023-02-27T00:59:27.198Z,100173.00
2023-02-27T01:00:02.009Z,100170.34
2023-02-27T01:00:34.220Z,100175.69
2023-02-27T01:01:06.370Z,100179.97
2023-02-27T01:01:41.239Z,100175.88
2023-02-27T01:02:13.545Z,100179.59
2023-02-27T01:02:45.807Z,100178.53
2023-02-27T01:03:20.605Z,100183.06
2023-02-27T01:03:52.714Z,100177.97
2023-02-27T01:04:24.987Z,100177.13
2023-02-27T01:05:04.856Z,100184.09
2023-02-27T01:05:36.978Z,100182.66
2023-02-27T01:06:09.205Z,100179.78
2023-02-27T01:06:43.909Z,100182.47
2023-02-27T01:07:16.209Z,100187.78
2023-02-27T01:07:50.956Z,100187.78
2023-02-27T01:08:23.091Z,100183.28
2023-02-27T01:08:56.004Z,100179.78
2023-02-27T01:09:32.661Z,100192.06
2023-02-27T01:10:06.238Z,100183.47
2023-02-27T01:10:41.056Z,100182.88
2023-02-27T01:11:13.191Z,100180.44
2023-02-27T01:11:45.331Z,100197.22
2023-02-27T01:12:20.133Z,100185.94
2023-02-27T01:12:52.411Z,100191.50
2023-02-27T01:13:24.566Z,100193.94
2023-02-27T01:14:00.642Z,100190.44
2023-02-27T01:14:32.811Z,100189.66
2023-02-27T01:15:06.767Z,100193.94
2023-02-27T01:15:41.614Z,100192.91
2023-02-27T01:16:14.877Z,100195.56
2023-02-27T01:16:47.010Z,100195.56
2023-02-27T01:17:23.183Z,100201.72
2023-02-27T01:17:55.446Z,100192.09
2023-02-27T01:18:27.617Z,100200.69
2023-02-27T01:19:03.607Z,100195.13
2023-02-27T01:19:35.708Z,100202.09
2023-02-27T01:20:12.585Z,100192.88
2023-02-27T01:20:47.335Z,100200.88
2023-02-27T01:21:19.700Z,100199.81
2023-02-27T01:21:51.870Z,100209.44
2023-02-27T01:22:27.337Z,100206.78
2023-02-27T01:22:59.503Z,100204.53
2023-02-27T01:23:31.616Z,100211.72
2023-02-27T01:24:06.652Z,100208.22
2023-02-27T01:24:38.826Z,100205.56
2023-02-27T01:25:14.033Z,100209.47
2023-02-27T01:25:47.017Z,100210.69
2023-02-27T01:26:19.137Z,100203.97
2023-02-27T01:26:54.783Z,100210.13
2023-02-27T01:27:27.185Z,100209.28
2023-02-27T01:27:59.340Z,100208.28
2023-02-27T01:28:34.083Z,100198.44
2023-02-27T01:29:06.651Z,100208.47
2023-02-27T01:29:38.936Z,100206.03
2023-02-27T01:30:16.336Z,100206.84
2023-02-27T01:30:49.922Z,100207.84
2023-02-27T01:31:22.066Z,100206.03
2023-02-27T01:31:56.936Z,100208.47
2023-02-27T01:32:29.205Z,100205.81
2023-02-27T01:33:01.429Z,100203.97
2023-02-27T01:33:36.144Z,100208.28
2023-02-27T01:34:08.509Z,100205.00
2023-02-27T01:34:40.615Z,100210.31
2023-02-27T01:35:18.066Z,100207.66
2023-02-27T01:35:50.264Z,100206.03
2023-02-27T01:36:22.431Z,100203.16
2023-02-27T01:36:57.205Z,100205.00
2023-02-27T01:37:29.324Z,100208.91
2023-02-27T01:38:01.625Z,100201.13
2023-02-27T01:38:36.352Z,100200.50
2023-02-27T01:39:08.632Z,100211.16
2023-02-27T01:39:40.764Z,100208.72
2023-02-27T01:40:16.890Z,100205.25
2023-02-27T01:40:49.116Z,100206.06
2023-02-27T01:41:21.359Z,100199.94
2023-02-27T01:41:56.542Z,100207.09
2023-02-27T01:42:29.270Z,100201.75
2023-02-27T01:43:01.996Z,100213.22
2023-02-27T01:43:37.499Z,100205.44
2023-02-27T01:44:11.903Z,100206.47
2023-02-27T01:45:13.837Z,100202.41
2023-02-27T01:45:50.543Z,100196.47
2023-02-27T01:46:23.525Z,100207.09
2023-02-27T01:46:55.816Z,100209.56
2023-02-27T01:47:30.673Z,100206.06
2023-02-27T01:48:12.139Z,100204.44
2023-02-27T01:48:45.359Z,100205.50
2023-02-27T01:49:24.507Z,100209.16
2023-02-27T01:49:56.619Z,100208.16
2023-02-27T01:50:32.223Z,100206.06
2023-02-27T01:51:11.413Z,100207.72
2023-02-27T01:51:47.960Z,100207.91
2023-02-27T01:52:20.252Z,100207.72
2023-02-27T01:52:59.047Z,100206.69
2023-02-27T01:53:34.305Z,100205.69
2023-02-27T01:54:12.153Z,100204.63
2023-02-27T01:54:44.268Z,100206.25
2023-02-27T01:55:16.640Z,100207.91
2023-02-27T01:55:52.472Z,100212.78
2023-02-27T01:56:26.256Z,100211.16
2023-02-27T01:57:02.698Z,100207.47
2023-02-27T01:57:35.468Z,100204.00
2023-02-27T01:58:12.283Z,100206.44
2023-02-27T01:58:48.375Z,100206.44
2023-02-27T01:59:21.901Z,100211.78
2023-02-27T01:59:55.850Z,100202.97
2023-02-27T02:00:31.694Z,100208.28
2023-02-27T02:01:04.054Z,100208.28
2023-02-27T02:01:37.314Z,100208.91
2023-02-27T02:02:17.788Z,100212.38
2023-02-27T02:02:52.777Z,100208.09
2023-02-27T02:03:31.455Z,100208.91
2023-02-27T02:04:13.295Z,100217.91
2023-02-27T02:04:46.456Z,100207.72
2023-02-27T02:05:19.750Z,100211.00
2023-02-27T02:06:00.389Z,100220.56
2023-02-27T02:06:35.949Z,100213.03
2023-02-27T02:07:12.249Z,100220.19
2023-02-27T02:07:48.406Z,100214.06
2023-02-27T02:08:22.158Z,100214.06
2023-02-27T02:08:56.328Z,100214.06
2023-02-27T02:09:33.085Z,100211.41
2023-02-27T02:10:07.904Z,100207.09
2023-02-27T02:10:41.261Z,100220.38
2023-02-27T02:11:18.590Z,100215.91
2023-02-27T02:11:51.029Z,100216.72
2023-02-27T02:12:27.038Z,100223.03
2023-02-27T02:13:02.483Z,100220.63
2023-02-27T02:13:35.490Z,100213.88
2023-02-27T02:14:10.984Z,100211.19
2023-02-27T02:14:47.717Z,100222.06
2023-02-27T02:15:25.874Z,100216.75
2023-02-27T02:16:14.616Z,100219.81
2023-02-27T02:17:15.908Z,100209.22
2023-02-27T02:18:01.117Z,100214.09
2023-02-27T02:18:41.007Z,100219.41
2023-02-27T02:19:44.028Z,100226.81
2023-02-27T02:21:12.781Z,100227.63
2023-02-27T02:22:28.228Z,100235.59
2023-02-27T02:23:50.173Z,100232.34
2023-02-27T02:24:52.219Z,100230.50
2023-02-27T02:26:01.773Z,100225.19
2023-02-27T02:26:44.406Z,100231.53
2023-02-27T02:27:37.235Z,100226.03
2023-02-27T02:28:23.732Z,100234.81
2023-02-27T02:29:31.438Z,100232.34
2023-02-27T02:30:54.430Z,100226.22
2023-02-27T02:32:07.814Z,100234.63
2023-02-27T02:33:11.909Z,100230.31
2023-02-27T02:34:25.911Z,100229.69
2023-02-27T02:35:29.725Z,100230.75
2023-02-27T02:36:45.801Z,100232.97
2023-02-27T02:37:52.482Z,100240.16
2023-02-27T02:38:56.871Z,100242.81
2023-02-27T02:40:06.695Z,100242.81
2023-02-27T02:40:44.790Z,100251.56
2023-02-27T02:41:28.990Z,100246.69
2023-02-27T02:42:05.326Z,100245.03
2023-02-27T02:42:43.622Z,100245.63
2023-02-27T02:43:27.661Z,100250.94
2023-02-27T02:44:05.237Z,100252.59
2023-02-27T02:44:48.046Z,100253.59
2023-02-27T02:45:30.892Z,100263.22
2023-02-27T02:46:10.532Z,100252.59
2023-02-27T02:46:47.935Z,100263.03
2023-02-27T02:47:28.907Z,100259.13
2023-02-27T02:48:09.229Z,100262.59
2023-02-27T02:48:47.734Z,100262.41
2023-02-27T02:49:31.561Z,100259.31
2023-02-27T02:50:11.246Z,100261.97
2023-02-27T02:50:50.540Z,100262.59
2023-02-27T02:51:37.408Z,100265.25
2023-02-27T02:52:17.745Z,100268.50
2023-02-27T02:52:57.109Z,100266.69
2023-02-27T02:53:40.580Z,100265.88
2023-02-27T02:54:21.781Z,100268.09
2023-02-27T02:54:59.570Z,100262.59
2023-02-27T02:55:40.253Z,100267.69
2023-02-27T02:56:21.150Z,100267.69
2023-02-27T02:57:00.472Z,100265.84
2023-02-27T02:57:41.093Z,100272.81
2023-02-27T02:58:20.469Z,100270.78
2023-02-27T02:59:02.624Z,100273.44
2023-02-27T02:59:40.268Z,100273.44
2023-02-27T03:00:18.824Z,100266.25
2023-02-27T03:00:59.301Z,100270.53
2023-02-27T03:01:33.738Z,100273.81
2023-02-27T03:02:12.575Z,100277.09
2023-02-27T03:02:49.223Z,100275.84
2023-02-27T03:03:27.269Z,100275.84
2023-02-27T03:04:09.828Z,100275.03
2023-02-27T03:04:46.908Z,100274.44
2023-02-27T03:05:25.168Z,100278.13
2023-02-27T03:06:04.890Z,100276.47
2023-02-27T03:06:41.728Z,100272.19
2023-02-27T03:07:21.040Z,100279.13
2023-02-27T03:08:00.493Z,100271.16
2023-02-27T03:08:38.347Z,100273.63
2023-02-27T03:09:17.997Z,100278.50
2023-02-27T03:09:58.251Z,100275.03
2023-02-27T03:10:35.143Z,100281.16
2023-02-27T03:11:08.167Z,100282.81
2023-02-27T03:11:48.343Z,100283.63
2023-02-27T03:12:25.429Z,100280.16
2023-02-27T03:13:05.510Z,100280.34
2023-02-27T03:13:41.628Z,100278.75
2023-02-27T03:14:21.927Z,100285.91
2023-02-27T03:15:02.012Z,100283.63
2023-02-27T03:15:39.966Z,100284.69
2023-02-27T03:16:20.354Z,100282.81
2023-02-27T03:16:56.168Z,100288.13
2023-02-27T03:17:39.531Z,100282.81
2023-02-27T03:18:20.861Z,100293.44
2023-02-27T03:18:57.050Z,100285.47
2023-02-27T03:19:34.609Z,100293.44
2023-02-27T03:20:12.552Z,100287.34
2023-02-27T03:20:49.605Z,100293.44
2023-02-27T03:21:28.110Z,100291.59
2023-02-27T03:22:07.537Z,100296.91
2023-02-27T03:22:44.896Z,100293.44
2023-02-27T03:23:21.105Z,100286.50
2023-02-27T03:23:59.635Z,100299.81
2023-02-27T03:24:40.096Z,100303.28
2023-02-27T03:25:14.546Z,100297.97
2023-02-27T03:25:57.853Z,100293.44
2023-02-27T03:26:40.064Z,100300.41
2023-02-27T03:27:13.682Z,100298.38
2023-02-27T03:27:55.450Z,100296.28
2023-02-27T03:28:32.754Z,100300.78
2023-02-27T03:29:10.342Z,100294.25
2023-02-27T03:29:52.994Z,100302.03
2023-02-27T03:30:31.208Z,100299.38
2023-02-27T03:31:11.769Z,100302.03
2023-02-27T03:31:50.226Z,100303.66
2023-02-27T03:32:29.373Z,100300.16
2023-02-27T03:33:10.984Z,100300.78
2023-02-27T03:33:49.379Z,100305.47
2023-02-27T03:34:26.556Z,100303.66
2023-02-27T03:35:01.728Z,100303.06
2023-02-27T03:35:45.566Z,100305.91
2023-02-27T03:36:29.706Z,100314.31
2023-02-27T03:37:06.934Z,100311.03
2023-02-27T03:37:53.233Z,100309.38
2023-02-27T03:38:36.324Z,100303.47
2023-02-27T03:39:17.246Z,100306.94
2023-02-27T03:39:58.012Z,100310.19
2023-02-27T03:40:34.696Z,100309.59
2023-02-27T03:41:14.943Z,100310.63
2023-02-27T03:42:05.926Z,100319.03
2023-02-27T03:43:07.235Z,100310.03
2023-02-27T03:43:59.709Z,100312.50
2023-02-27T03:44:40.426Z,100318.41
2023-02-27T03:45:23.032Z,100322.50
2023-02-27T03:46:00.555Z,100317.19
2023-02-27T03:46:32.929Z,100314.53
2023-02-27T03:47:07.824Z,100323.28
2023-02-27T03:47:40.170Z,100318.78
2023-02-27T03:48:13.188Z,100317.78
2023-02-27T03:48:49.260Z,100315.13
2023-02-27T03:49:21.611Z,100315.94
2023-02-27T03:49:56.043Z,100320.25
2023-02-27T03:50:30.937Z,100314.69
2023-02-27T03:51:03.852Z,100320.84
2023-02-27T03:51:36.735Z,100323.28
2023-02-27T03:52:09.195Z,100318.81
2023-02-27T03:52:44.161Z,100319.63
2023-02-27T03:53:21.768Z,100317.97
2023-02-27T03:54:01.714Z,100316.34
2023-02-27T03:54:41.517Z,100312.03
2023-02-27T03:55:19.265Z,100320.00
2023-02-27T03:55:53.693Z,100317.59
2023-02-27T03:56:32.472Z,100314.69
2023-02-27T03:57:06.815Z,100316.34
2023-02-27T03:57:40.278Z,100315.50
2023-02-27T03:58:15.474Z,100315.31
2023-02-27T03:58:49.504Z,100317.16
2023-02-27T03:59:23.316Z,100319.63
2023-02-27T04:00:00.752Z,100317.97
2023-02-27T04:00:33.559Z,100318.81
2023-02-27T04:01:05.920Z,100318.81
2023-02-27T04:01:40.990Z,100320.44
2023-02-27T04:02:13.560Z,100326.78
2023-02-27T04:02:50.279Z,100315.13
2023-02-27T04:03:27.870Z,100327.97
2023-02-27T04:04:05.117Z,100325.31
2023-02-27T04:04:58.122Z,100324.94
2023-02-27T04:06:22.323Z,100331.47
2023-02-27T04:07:14.055Z,100327.00
2023-02-27T04:07:59.576Z,100329.84
2023-02-27T04:08:47.261Z,100332.50
2023-02-27T04:09:29.270Z,100331.47
2023-02-27T04:10:42.106Z,100342.50
2023-02-27T04:11:32.763Z,100340.06
2023-02-27T04:12:14.165Z,100340.69
2023-02-27T04:13:12.053Z,100340.47
2023-02-27T04:13:50.536Z,100335.97
2023-02-27T04:14:50.241Z,100339.44
2023-02-27T04:15:35.974Z,100349.06
2023-02-27T04:16:31.404Z,100337.41
2023-02-27T04:17:16.425Z,100340.06
2023-02-27T04:17:59.022Z,100344.16
2023-02-27T04:18:50.812Z,100339.84
2023-02-27T04:19:40.530Z,100348.25
2023-02-27T04:20:33.884Z,100346.59
2023-02-27T04:21:13.022Z,100339.66
2023-02-27T04:21:57.303Z,100339.66
2023-02-27T04:22:35.805Z,100350.91
2023-02-27T04:23:16.066Z,100352.53
2023-02-27T04:23:50.556Z,100353.97
2023-02-27T04:24:36.434Z,100350.31
2023-02-27T04:25:30.412Z,100357.22
2023-02-27T04:26:18.031Z,100349.25
2023-02-27T04:26:57.230Z,100358.88
2023-02-27T04:27:37.430Z,100353.94
2023-02-27T04:28:20.266Z,100361.72
2023-02-27T04:29:03.134Z,100357.25
2023-02-27T04:29:42.066Z,100358.25
2023-02-27T04:30:28.712Z,100363.38
2023-02-27T04:31:08.706Z,100362.75
2023-02-27T04:31:46.253Z,100362.56
2023-02-27T04:32:28.769Z,100363.38
2023-02-27T04:33:07.673Z,100368.25
2023-02-27T04:33:48.145Z,100362.94
2023-02-27T04:34:23.622Z,100377.03
2023-02-27T04:35:00.040Z,100363.75
2023-02-27T04:35:41.303Z,100366.84
2023-02-27T04:36:23.524Z,100367.66
2023-02-27T04:37:03.862Z,100365.81
2023-02-27T04:37:42.520Z,100370.94
2023-02-27T04:38:22.414Z,100362.97
2023-02-27T04:39:06.297Z,100371.53
2023-02-27T04:39:51.671Z,100364.38
2023-02-27T04:40:33.427Z,100374.00
2023-02-27T04:41:15.821Z,100372.97
2023-02-27T04:41:53.155Z,100368.88
2023-02-27T04:42:29.193Z,100367.03
2023-02-27T04:43:06.768Z,100376.03
2023-02-27T04:43:41.914Z,100369.91
2023-02-27T04:44:16.359Z,100369.69
2023-02-27T04:44:53.069Z,100379.50
2023-02-27T04:45:27.867Z,100375.00
2023-02-27T04:46:02.879Z,100378.69
2023-02-27T04:46:41.381Z,100372.34
2023-02-27T04:47:16.610Z,100375.22
2023-02-27T04:47:53.597Z,100372.56
2023-02-27T04:48:33.215Z,100381.34
2023-02-27T04:49:12.520Z,100373.59
2023-02-27T04:49:48.338Z,100379.69
2023-02-27T04:50:28.863Z,100381.34
2023-02-27T04:51:05.533Z,100381.97
2023-02-27T04:51:44.499Z,100383.00
2023-02-27T04:52:23.505Z,100379.09
2023-02-27T04:53:02.094Z,100376.03
2023-02-27T04:53:41.774Z,100382.19
2023-02-27T04:54:18.086Z,100386.88
2023-02-27T04:54:55.232Z,100389.53
2023-02-27T04:55:33.362Z,100392.19
2023-02-27T04:56:14.595Z,100388.69
2023-02-27T04:56:52.744Z,100394.00
2023-02-27T04:57:33.171Z,100389.53
2023-02-27T04:58:07.105Z,100395.88
2023-02-27T04:58:45.606Z,100390.56
2023-02-27T04:59:25.003Z,100398.53
2023-02-27T05:00:00.416Z,100398.53
2023-02-27T05:00:35.431Z,100405.47
2023-02-27T05:01:18.071Z,100395.63
2023-02-27T05:01:55.616Z,100398.28
2023-02-27T05:02:33.519Z,100398.28
2023-02-27T05:03:14.806Z,100409.56
2023-02-27T05:03:50.248Z,100399.94
2023-02-27T05:04:25.678Z,100406.91
2023-02-27T05:05:03.261Z,100407.28
2023-02-27T05:05:38.479Z,100405.06
2023-02-27T05:06:11.497Z,100400.56
2023-02-27T05:06:48.856Z,100410.97
2023-02-27T05:07:25.946Z,100411.78
2023-02-27T05:08:03.619Z,100409.97
2023-02-27T05:08:48.322Z,100409.13
2023-02-27T05:09:27.184Z,100415.69
2023-02-27T05:10:02.718Z,100415.88
2023-02-27T05:10:42.836Z,100413.22
2023-02-27T05:11:27.167Z,100421.19
2023-02-27T05:12:06.725Z,100423.66
2023-02-27T05:12:45.966Z,100426.31
2023-02-27T05:13:22.795Z,100424.25
2023-02-27T05:14:01.189Z,100425.91
2023-02-27T05:14:38.036Z,100435.31
2023-02-27T05:15:14.530Z,100426.31
2023-02-27T05:15:52.136Z,100429.78
2023-02-27T05:16:29.680Z,100437.38
2023-02-27T05:17:07.709Z,100431.22
2023-02-27T05:17:49.066Z,100431.84
2023-02-27T05:18:22.690Z,100437.38
2023-02-27T05:18:55.800Z,100430.41
2023-02-27T05:19:30.597Z,100438.16
2023-02-27T05:20:05.257Z,100436.13
2023-02-27T05:20:49.320Z,100436.13
2023-02-27T05:21:30.404Z,100443.09
2023-02-27T05:22:18.061Z,100444.94
2023-02-27T05:23:02.189Z,100445.94
2023-02-27T05:23:44.075Z,100444.94
2023-02-27T05:24:27.228Z,100445.53
2023-02-27T05:25:08.498Z,100456.97
2023-02-27T05:25:49.129Z,100449.81
2023-02-27T05:26:35.246Z,100457.59
2023-02-27T05:27:17.974Z,100453.09
2023-02-27T05:27:54.178Z,100450.22
2023-02-27T05:28:37.068Z,100457.81
2023-02-27T05:29:17.396Z,100456.16
2023-02-27T05:29:50.496Z,100453.09
2023-02-27T05:30:28.925Z,100458.19
2023-02-27T05:31:07.947Z,100452.88
2023-02-27T05:31:47.698Z,100454.53
2023-02-27T05:32:30.791Z,100460.06
2023-02-27T05:33:08.954Z,100460.06
2023-02-27T05:33:49.199Z,100461.91
2023-02-27T05:34:28.124Z,100459.25
2023-02-27T05:35:08.976Z,100458.19
2023-02-27T05:35:51.435Z,100458.19
2023-02-27T05:36:30.365Z,100459.84
2023-02-27T05:37:08.561Z,100460.66
2023-02-27T05:37:47.684Z,100455.53
2023-02-27T05:38:25.853Z,100465.97
2023-02-27T05:39:01.927Z,100461.28
2023-02-27T05:39:40.382Z,100468.03
2023-02-27T05:40:17.134Z,100465.19
2023-02-27T05:40:54.071Z,100459.03
2023-02-27T05:41:35.863Z,100456.56
2023-02-27T05:42:14.182Z,100456.19
2023-02-27T05:42:53.774Z,100460.69
2023-02-27T05:43:31.925Z,100454.53
2023-02-27T05:44:09.330Z,100460.69
2023-02-27T05:44:45.434Z,100456.78
2023-02-27T05:45:24.767Z,100459.44
2023-02-27T05:46:01.617Z,100460.47
2023-02-27T05:46:37.682Z,100463.13
2023-02-27T05:47:16.437Z,100464.75
2023-02-27T05:47:54.927Z,100462.94
2023-02-27T05:48:30.710Z,100463.75
2023-02-27T05:49:11.256Z,100463.75
2023-02-27T05:49:47.890Z,100463.75
2023-02-27T05:50:23.814Z,100470.91
2023-02-27T05:51:01.033Z,100468.25
2023-02-27T05:51:35.744Z,100461.91
2023-02-27T05:52:12.311Z,100465.16
2023-02-27T05:52:50.292Z,100467.63
2023-02-27T05:53:27.544Z,100469.28
2023-02-27T05:54:03.221Z,100476.00
2023-02-27T05:54:39.164Z,100464.34
2023-02-27T05:55:20.262Z,100463.13
2023-02-27T05:55:55.098Z,100458.63
2023-02-27T05:56:35.744Z,100465.59
2023-02-27T05:57:13.751Z,100470.09
2023-02-27T05:57:51.878Z,100463.13
2023-02-27T05:58:27.820Z,100476.63
2023-02-27T05:59:06.346Z,100478.47
2023-02-27T05:59:44.401Z,100470.69
2023-02-27T06:00:21.549Z,100469.88
2023-02-27T06:01:00.144Z,100475.00
2023-02-27T06:01:33.242Z,100471.31
2023-02-27T06:02:05.893Z,100474.81
2023-02-27T06:02:41.348Z,100478.06
2023-02-27T06:03:15.698Z,100479.06
2023-02-27T06:03:50.563Z,100480.72
2023-02-27T06:04:22.829Z,100482.34
2023-02-27T06:04:55.203Z,100484.81
2023-02-27T06:05:30.967Z,100487.47
2023-02-27T06:06:06.831Z,100487.47
2023-02-27T06:06:42.018Z,100480.28
2023-02-27T06:07:17.376Z,100487.47
2023-02-27T06:07:49.459Z,100485.84
2023-02-27T06:08:22.527Z,100487.69
2023-02-27T06:08:57.235Z,100492.81
2023-02-27T06:09:29.382Z,100490.94
2023-02-27T06:10:01.779Z,100494.41
2023-02-27T06:10:37.230Z,100485.63
2023-02-27T06:11:09.362Z,100492.81
2023-02-27T06:11:46.627Z,100486.84
2023-02-27T06:12:19.429Z,100490.94
2023-02-27T06:12:51.571Z,100495.44
2023-02-27T06:13:27.297Z,100490.94
2023-02-27T06:13:59.446Z,100498.72
2023-02-27T06:14:31.546Z,100488.88
2023-02-27T06:15:06.511Z,100494.19
2023-02-27T06:15:39.110Z,100491.53
2023-02-27T06:16:20.504Z,100497.50
2023-02-27T06:16:52.678Z,100491.34
2023-02-27T06:17:24.965Z,100490.13
2023-02-27T06:17:59.763Z,100494.41
2023-02-27T06:18:31.866Z,100500.56
2023-02-27T06:19:05.039Z,100495.88
2023-02-27T06:19:39.823Z,100499.13
2023-02-27T06:20:12.853Z,100494.63
2023-02-27T06:20:48.673Z,100503.81
2023-02-27T06:21:20.876Z,100498.31
2023-02-27T06:21:52.991Z,100498.91
2023-02-27T06:22:27.773Z,100501.38
2023-02-27T06:22:59.877Z,100504.66
2023-02-27T06:23:34.672Z,100503.63
2023-02-27T06:24:07.000Z,100503.63
2023-02-27T06:24:39.541Z,100508.94
2023-02-27T06:25:14.375Z,100500.94
2023-02-27T06:25:47.169Z,100502.00
2023-02-27T06:26:21.921Z,100498.28
2023-02-27T06:26:56.651Z,100497.28
2023-02-27T06:27:28.836Z,100491.97
2023-02-27T06:28:03.950Z,100492.59
2023-02-27T06:28:36.118Z,100492.34
2023-02-27T06:29:10.940Z,100487.66
2023-02-27T06:29:47.561Z,100486.84
2023-02-27T06:30:20.097Z,100488.50
2023-02-27T06:30:54.098Z,100486.44
2023-02-27T06:31:29.056Z,100486.44
2023-02-27T06:32:01.511Z,100497.88
2023-02-27T06:32:33.765Z,100491.75
2023-02-27T06:33:08.535Z,100488.06
2023-02-27T06:33:41.043Z,100485.41
2023-02-27T06:34:13.161Z,100500.34
2023-02-27T06:34:47.886Z,100489.72
2023-02-27T06:35:20.206Z,100486.44
2023-02-27T06:35:58.123Z,100494.22
2023-02-27T06:36:30.649Z,100492.56
2023-02-27T06:37:06.028Z,100494.22
2023-02-27T06:37:41.153Z,100496.28
2023-02-27T06:38:13.283Z,100495.44
2023-02-27T06:38:45.381Z,100497.88
2023-02-27T06:39:20.105Z,100492.56
2023-02-27T06:39:52.239Z,100494.41
2023-02-27T06:40:24.832Z,100504.03
2023-02-27T06:40:59.486Z,100503.19
2023-02-27T06:41:31.627Z,100497.88
2023-02-27T06:42:09.294Z,100495.84
2023-02-27T06:42:42.740Z,100503.84
2023-02-27T06:43:15.104Z,100502.00
2023-02-27T06:43:49.840Z,100500.97
2023-02-27T06:44:21.982Z,100500.97
2023-02-27T06:44:56.663Z,100511.19
2023-02-27T06:45:28.809Z,100512.84
2023-02-27T06:46:01.191Z,100509.75
2023-02-27T06:46:35.951Z,100506.91
2023-02-27T06:47:08.347Z,100505.84
2023-02-27T06:47:41.374Z,100503.81
2023-02-27T06:48:16.213Z,100501.97
2023-02-27T06:48:48.348Z,100497.47
2023-02-27T06:49:20.710Z,100499.91
2023-02-27T06:49:55.365Z,100494.59
2023-02-27T06:50:28.594Z,100496.03
2023-02-27T06:51:00.747Z,100495.41
2023-02-27T06:51:35.534Z,100490.31
2023-02-27T06:52:07.732Z,100486.00
2023-02-27T06:52:40.876Z,100493.19
2023-02-27T06:53:15.615Z,100498.50
2023-02-27T06:53:47.799Z,100496.03
2023-02-27T06:54:20.152Z,100497.03
2023-02-27T06:54:54.870Z,100496.03
2023-02-27T06:55:26.953Z,100502.38
2023-02-27T06:55:59.092Z,100504.84
2023-02-27T06:56:33.765Z,100507.50
2023-02-27T06:57:08.544Z,100508.31
2023-02-27T06:57:40.643Z,100508.50
2023-02-27T06:58:15.447Z,100505.66
2023-02-27T06:58:47.535Z,100505.84
2023-02-27T06:59:19.742Z,100514.66
2023-02-27T06:59:55.876Z,100513.84
2023-02-27T07:00:29.499Z,100515.66
2023-02-27T07:01:01.790Z,100519.78
2023-02-27T07:01:36.981Z,100512.63
2023-02-27T07:02:13.322Z,100518.75
2023-02-27T07:02:48.352Z,100519.59
2023-02-27T07:03:20.524Z,100530.81
2023-02-27T07:03:55.403Z,100521.63
2023-02-27T07:04:27.558Z,100522.41
2023-02-27T07:04:59.781Z,100514.25
2023-02-27T07:05:34.681Z,100522.03
2023-02-27T07:06:07.520Z,100520.38
2023-02-27T07:07:35.795Z,100518.34
2023-02-27T07:07:37.981Z,100528.56
2023-02-27T07:08:13.748Z,100514.25